sensor_id;sensor_type;location;lat;lon;timestamp;P1;durP1;ratioP1;P2;durP2;ratioP2
21727;SDS011;11026;50.560;17.852;2022-08-19T00:02:08;25.23;;;14.30;;
21727;SDS011;11026;50.560;17.852;2022-08-19T00:04:36;17.05;;;13.98;;
21727;SDS011;11026;50.560;17.852;2022-08-19T00:07:04;24.42;;;15.35;;
21727;SDS011;11026;50.560;17.852;2022-08-19T00:09:32;20.10;;;14.95;;
21727;SDS011;11026;50.560;17.852;2022-08-19T00:12:00;21.40;;;15.23;;
21727;SDS011;11026;50.560;17.852;2022-08-19T00:14:40;22.92;;;15.73;;
21727;SDS011;11026;50.560;17.852;2022-08-19T00:17:10;22.35;;;16.25;;
21727;SDS011;11026;50.560;17.852;2022-08-19T00:19:43;25.20;;;16.38;;
21727;SDS011;11026;50.560;17.852;2022-08-19T00:22:16;25.00;;;16.80;;
21727;SDS011;11026;50.560;17.852;2022-08-19T00:24:58;21.98;;;16.48;;
21727;SDS011;11026;50.560;17.852;2022-08-19T00:30:17;30.00;;;17.55;;
21727;SDS011;11026;50.560;17.852;2022-08-19T00:32:57;24.35;;;17.08;;
21727;SDS011;11026;50.560;17.852;2022-08-19T00:35:32;26.90;;;17.52;;
21727;SDS011;11026;50.560;17.852;2022-08-19T00:38:09;23.92;;;16.75;;
21727;SDS011;11026;50.560;17.852;2022-08-19T00:40:38;26.75;;;17.20;;
21727;SDS011;11026;50.560;17.852;2022-08-19T00:45:52;31.00;;;18.73;;
21727;SDS011;11026;50.560;17.852;2022-08-19T00:48:21;26.75;;;18.27;;
21727;SDS011;11026;50.560;17.852;2022-08-19T00:56:37;28.48;;;18.33;;
21727;SDS011;11026;50.560;17.852;2022-08-19T01:02:16;28.40;;;18.30;;
21727;SDS011;11026;50.560;17.852;2022-08-19T01:04:49;27.23;;;18.17;;
21727;SDS011;11026;50.560;17.852;2022-08-19T01:07:33;26.20;;;17.83;;
21727;SDS011;11026;50.560;17.852;2022-08-19T01:13:14;25.42;;;17.50;;
21727;SDS011;11026;50.560;17.852;2022-08-19T01:18:36;29.80;;;18.48;;
21727;SDS011;11026;50.560;17.852;2022-08-19T01:24:20;23.25;;;17.20;;
21727;SDS011;11026;50.560;17.852;2022-08-19T01:26:56;28.38;;;17.80;;
21727;SDS011;11026;50.560;17.852;2022-08-19T01:29:23;25.90;;;16.83;;
21727;SDS011;11026;50.560;17.852;2022-08-19T01:34:27;21.23;;;16.92;;
21727;SDS011;11026;50.560;17.852;2022-08-19T01:37:01;22.02;;;16.50;;
21727;SDS011;11026;50.560;17.852;2022-08-19T01:39:41;18.95;;;15.77;;
21727;SDS011;11026;50.560;17.852;2022-08-19T01:42:15;20.00;;;15.65;;
21727;SDS011;11026;50.560;17.852;2022-08-19T01:44:43;20.27;;;15.20;;
21727;SDS011;11026;50.560;17.852;2022-08-19T01:47:12;17.85;;;14.38;;
21727;SDS011;11026;50.560;17.852;2022-08-19T01:49:43;19.70;;;14.52;;
21727;SDS011;11026;50.560;17.852;2022-08-19T01:55:11;16.85;;;14.68;;
21727;SDS011;11026;50.560;17.852;2022-08-19T01:57:42;18.55;;;14.27;;
21727;SDS011;11026;50.560;17.852;2022-08-19T02:00:20;18.45;;;15.18;;
21727;SDS011;11026;50.560;17.852;2022-08-19T02:02:55;18.75;;;14.13;;
21727;SDS011;11026;50.560;17.852;2022-08-19T02:07:52;16.95;;;14.70;;
21727;SDS011;11026;50.560;17.852;2022-08-19T02:10:21;17.40;;;15.40;;
21727;SDS011;11026;50.560;17.852;2022-08-19T02:12:54;16.60;;;14.88;;
21727;SDS011;11026;50.560;17.852;2022-08-19T02:15:23;19.80;;;15.30;;
21727;SDS011;11026;50.560;17.852;2022-08-19T02:17:52;18.90;;;16.27;;
21727;SDS011;11026;50.560;17.852;2022-08-19T02:20:31;20.80;;;14.70;;
21727;SDS011;11026;50.560;17.852;2022-08-19T02:23:00;17.25;;;15.45;;
21727;SDS011;11026;50.560;17.852;2022-08-19T02:25:29;18.67;;;16.08;;
21727;SDS011;11026;50.560;17.852;2022-08-19T02:27:56;17.10;;;15.38;;
21727;SDS011;11026;50.560;17.852;2022-08-19T02:30:26;20.88;;;16.70;;
21727;SDS011;11026;50.560;17.852;2022-08-19T02:32:59;17.02;;;15.23;;
21727;SDS011;11026;50.560;17.852;2022-08-19T02:35:42;19.40;;;15.77;;
21727;SDS011;11026;50.560;17.852;2022-08-19T02:41:32;20.08;;;16.13;;
21727;SDS011;11026;50.560;17.852;2022-08-19T02:46:57;20.73;;;16.38;;
21727;SDS011;11026;50.560;17.852;2022-08-19T02:52:00;21.45;;;17.13;;
21727;SDS011;11026;50.560;17.852;2022-08-19T02:54:28;19.63;;;16.23;;
21727;SDS011;11026;50.560;17.852;2022-08-19T02:59:39;18.20;;;16.30;;
21727;SDS011;11026;50.560;17.852;2022-08-19T03:02:07;18.88;;;15.68;;
21727;SDS011;11026;50.560;17.852;2022-08-19T03:04:35;19.52;;;17.17;;
21727;SDS011;11026;50.560;17.852;2022-08-19T03:09:37;20.90;;;17.25;;
21727;SDS011;11026;50.560;17.852;2022-08-19T03:12:05;18.45;;;16.52;;
21727;SDS011;11026;50.560;17.852;2022-08-19T03:14:34;19.42;;;17.35;;
21727;SDS011;11026;50.560;17.852;2022-08-19T03:17:04;21.63;;;18.90;;
21727;SDS011;11026;50.560;17.852;2022-08-19T03:22:12;20.73;;;17.48;;
21727;SDS011;11026;50.560;17.852;2022-08-19T03:24:40;19.35;;;17.33;;
21727;SDS011;11026;50.560;17.852;2022-08-19T03:27:08;22.25;;;17.65;;
21727;SDS011;11026;50.560;17.852;2022-08-19T03:32:10;18.25;;;16.27;;
21727;SDS011;11026;50.560;17.852;2022-08-19T03:35:05;19.15;;;16.95;;
21727;SDS011;11026;50.560;17.852;2022-08-19T03:37:34;20.55;;;18.38;;
21727;SDS011;11026;50.560;17.852;2022-08-19T03:40:02;20.10;;;17.60;;
21727;SDS011;11026;50.560;17.852;2022-08-19T03:42:31;19.50;;;17.45;;
21727;SDS011;11026;50.560;17.852;2022-08-19T03:45:17;19.70;;;17.00;;
21727;SDS011;11026;50.560;17.852;2022-08-19T03:47:44;21.95;;;17.73;;
21727;SDS011;11026;50.560;17.852;2022-08-19T03:55:19;19.27;;;17.27;;
21727;SDS011;11026;50.560;17.852;2022-08-19T03:57:48;19.05;;;17.05;;
21727;SDS011;11026;50.560;17.852;2022-08-19T04:00:21;21.35;;;17.77;;
21727;SDS011;11026;50.560;17.852;2022-08-19T04:05:29;20.70;;;17.38;;
21727;SDS011;11026;50.560;17.852;2022-08-19T04:07:56;21.50;;;17.80;;
21727;SDS011;11026;50.560;17.852;2022-08-19T04:10:27;20.48;;;17.77;;
21727;SDS011;11026;50.560;17.852;2022-08-19T04:12:55;19.67;;;17.55;;
21727;SDS011;11026;50.560;17.852;2022-08-19T04:18:01;22.40;;;17.80;;
21727;SDS011;11026;50.560;17.852;2022-08-19T04:20:29;20.70;;;18.50;;
21727;SDS011;11026;50.560;17.852;2022-08-19T04:25:40;19.65;;;17.55;;
21727;SDS011;11026;50.560;17.852;2022-08-19T04:28:10;22.30;;;17.25;;
21727;SDS011;11026;50.560;17.852;2022-08-19T04:30:46;19.30;;;17.27;;
21727;SDS011;11026;50.560;17.852;2022-08-19T04:33:16;20.05;;;17.83;;
21727;SDS011;11026;50.560;17.852;2022-08-19T04:35:58;23.98;;;18.13;;
21727;SDS011;11026;50.560;17.852;2022-08-19T04:38:26;21.08;;;17.95;;
21727;SDS011;11026;50.560;17.852;2022-08-19T04:49:06;20.65;;;18.15;;
21727;SDS011;11026;50.560;17.852;2022-08-19T04:51:40;22.83;;;19.20;;
21727;SDS011;11026;50.560;17.852;2022-08-19T04:54:09;20.40;;;18.27;;
21727;SDS011;11026;50.560;17.852;2022-08-19T04:56:36;24.05;;;18.88;;
21727;SDS011;11026;50.560;17.852;2022-08-19T04:59:05;20.58;;;18.40;;
21727;SDS011;11026;50.560;17.852;2022-08-19T05:01:32;21.98;;;19.60;;
21727;SDS011;11026;50.560;17.852;2022-08-19T05:04:00;22.42;;;18.98;;
21727;SDS011;11026;50.560;17.852;2022-08-19T05:09:03;21.33;;;19.02;;
21727;SDS011;11026;50.560;17.852;2022-08-19T05:11:32;24.25;;;20.38;;
21727;SDS011;11026;50.560;17.852;2022-08-19T05:19:16;20.83;;;18.60;;
21727;SDS011;11026;50.560;17.852;2022-08-19T05:22:03;23.52;;;19.58;;
21727;SDS011;11026;50.560;17.852;2022-08-19T05:25:05;22.15;;;19.83;;
21727;SDS011;11026;50.560;17.852;2022-08-19T05:27:52;22.35;;;20.00;;
21727;SDS011;11026;50.560;17.852;2022-08-19T05:33:28;21.65;;;19.33;;
21727;SDS011;11026;50.560;17.852;2022-08-19T05:35:58;21.58;;;19.20;;
21727;SDS011;11026;50.560;17.852;2022-08-19T05:38:25;22.27;;;19.48;;
21727;SDS011;11026;50.560;17.852;2022-08-19T05:40:55;21.85;;;18.38;;
21727;SDS011;11026;50.560;17.852;2022-08-19T05:46:30;21.70;;;17.63;;
21727;SDS011;11026;50.560;17.852;2022-08-19T05:49:04;20.33;;;18.05;;
21727;SDS011;11026;50.560;17.852;2022-08-19T06:03:03;23.17;;;18.02;;
21727;SDS011;11026;50.560;17.852;2022-08-19T06:05:40;19.90;;;17.55;;
21727;SDS011;11026;50.560;17.852;2022-08-19T06:08:19;20.00;;;17.90;;
21727;SDS011;11026;50.560;17.852;2022-08-19T06:11:23;21.95;;;17.83;;
21727;SDS011;11026;50.560;17.852;2022-08-19T06:19:57;21.15;;;16.15;;
21727;SDS011;11026;50.560;17.852;2022-08-19T06:22:39;17.50;;;15.50;;
21727;SDS011;11026;50.560;17.852;2022-08-19T06:25:08;17.02;;;15.23;;
21727;SDS011;11026;50.560;17.852;2022-08-19T06:27:37;16.85;;;14.20;;
21727;SDS011;11026;50.560;17.852;2022-08-19T06:30:37;19.50;;;15.10;;
21727;SDS011;11026;50.560;17.852;2022-08-19T06:38:33;16.37;;;14.17;;
21727;SDS011;11026;50.560;17.852;2022-08-19T06:43:37;15.95;;;13.75;;
21727;SDS011;11026;50.560;17.852;2022-08-19T06:46:12;15.70;;;12.30;;
21727;SDS011;11026;50.560;17.852;2022-08-19T06:54:25;12.88;;;11.57;;
21727;SDS011;11026;50.560;17.852;2022-08-19T07:04:59;14.05;;;10.93;;
21727;SDS011;11026;50.560;17.852;2022-08-19T07:07:33;14.30;;;10.48;;
21727;SDS011;11026;50.560;17.852;2022-08-19T07:10:09;11.48;;;10.02;;
21727;SDS011;11026;50.560;17.852;2022-08-19T07:12:39;13.57;;;9.68;;
21727;SDS011;11026;50.560;17.852;2022-08-19T07:15:13;12.73;;;9.85;;
21727;SDS011;11026;50.560;17.852;2022-08-19T07:17:44;12.60;;;9.90;;
21727;SDS011;11026;50.560;17.852;2022-08-19T07:20:16;10.43;;;9.32;;
21727;SDS011;11026;50.560;17.852;2022-08-19T07:22:43;16.40;;;10.73;;
21727;SDS011;11026;50.560;17.852;2022-08-19T07:25:24;11.38;;;9.40;;
21727;SDS011;11026;50.560;17.852;2022-08-19T07:28:00;12.23;;;8.90;;
21727;SDS011;11026;50.560;17.852;2022-08-19T07:30:29;14.65;;;9.65;;
21727;SDS011;11026;50.560;17.852;2022-08-19T07:33:13;12.60;;;10.02;;
21727;SDS011;11026;50.560;17.852;2022-08-19T07:35:41;11.15;;;8.70;;
21727;SDS011;11026;50.560;17.852;2022-08-19T07:38:22;12.88;;;9.50;;
21727;SDS011;11026;50.560;17.852;2022-08-19T07:40:56;11.65;;;9.25;;
21727;SDS011;11026;50.560;17.852;2022-08-19T07:43:30;11.73;;;8.43;;
21727;SDS011;11026;50.560;17.852;2022-08-19T07:46:01;14.55;;;7.90;;
21727;SDS011;11026;50.560;17.852;2022-08-19T07:48:29;12.80;;;8.13;;
21727;SDS011;11026;50.560;17.852;2022-08-19T07:50:59;13.57;;;8.25;;
21727;SDS011;11026;50.560;17.852;2022-08-19T07:53:31;10.60;;;8.18;;
21727;SDS011;11026;50.560;17.852;2022-08-19T07:56:07;12.35;;;8.48;;
21727;SDS011;11026;50.560;17.852;2022-08-19T07:58:45;11.23;;;7.97;;
21727;SDS011;11026;50.560;17.852;2022-08-19T08:01:24;11.55;;;7.88;;
21727;SDS011;11026;50.560;17.852;2022-08-19T08:03:55;13.65;;;7.95;;
21727;SDS011;11026;50.560;17.852;2022-08-19T08:06:50;12.27;;;8.55;;
21727;SDS011;11026;50.560;17.852;2022-08-19T08:12:24;12.35;;;7.65;;
21727;SDS011;11026;50.560;17.852;2022-08-19T08:15:03;12.95;;;7.97;;
21727;SDS011;11026;50.560;17.852;2022-08-19T08:20:20;12.40;;;8.50;;
21727;SDS011;11026;50.560;17.852;2022-08-19T08:22:48;17.75;;;9.02;;
21727;SDS011;11026;50.560;17.852;2022-08-19T08:25:52;10.45;;;7.95;;
21727;SDS011;11026;50.560;17.852;2022-08-19T08:28:23;11.98;;;7.68;;
21727;SDS011;11026;50.560;17.852;2022-08-19T08:33:25;11.85;;;8.05;;
21727;SDS011;11026;50.560;17.852;2022-08-19T08:36:07;16.90;;;8.00;;
21727;SDS011;11026;50.560;17.852;2022-08-19T08:38:37;16.17;;;8.13;;
21727;SDS011;11026;50.560;17.852;2022-08-19T08:49:22;12.07;;;7.60;;
21727;SDS011;11026;50.560;17.852;2022-08-19T08:52:11;12.73;;;7.07;;
21727;SDS011;11026;50.560;17.852;2022-08-19T08:54:52;15.15;;;7.53;;
21727;SDS011;11026;50.560;17.852;2022-08-19T09:00:23;12.65;;;7.13;;
21727;SDS011;11026;50.560;17.852;2022-08-19T09:03:06;12.38;;;7.13;;
21727;SDS011;11026;50.560;17.852;2022-08-19T09:17:02;10.88;;;5.30;;
21727;SDS011;11026;50.560;17.852;2022-08-19T09:19:30;11.43;;;4.90;;
21727;SDS011;11026;50.560;17.852;2022-08-19T09:21:58;7.68;;;4.57;;
21727;SDS011;11026;50.560;17.852;2022-08-19T09:24:27;9.38;;;4.50;;
21727;SDS011;11026;50.560;17.852;2022-08-19T09:29:45;9.27;;;5.50;;
21727;SDS011;11026;50.560;17.852;2022-08-19T09:32:15;12.05;;;5.13;;
21727;SDS011;11026;50.560;17.852;2022-08-19T09:34:52;13.05;;;5.65;;
21727;SDS011;11026;50.560;17.852;2022-08-19T09:37:24;13.55;;;5.35;;
21727;SDS011;11026;50.560;17.852;2022-08-19T09:39:52;13.63;;;5.32;;
21727;SDS011;11026;50.560;17.852;2022-08-19T09:42:23;11.45;;;5.20;;
21727;SDS011;11026;50.560;17.852;2022-08-19T09:45:01;15.45;;;5.55;;
21727;SDS011;11026;50.560;17.852;2022-08-19T09:47:37;12.32;;;5.32;;
21727;SDS011;11026;50.560;17.852;2022-08-19T09:53:17;15.80;;;5.38;;
21727;SDS011;11026;50.560;17.852;2022-08-19T09:55:54;9.38;;;5.20;;
21727;SDS011;11026;50.560;17.852;2022-08-19T09:58:24;12.23;;;5.40;;
21727;SDS011;11026;50.560;17.852;2022-08-19T10:03:26;13.75;;;5.85;;
21727;SDS011;11026;50.560;17.852;2022-08-19T10:06:05;12.50;;;5.68;;
21727;SDS011;11026;50.560;17.852;2022-08-19T10:08:48;17.20;;;6.22;;
21727;SDS011;11026;50.560;17.852;2022-08-19T10:11:19;14.40;;;6.05;;
21727;SDS011;11026;50.560;17.852;2022-08-19T10:14:18;14.10;;;6.68;;
21727;SDS011;11026;50.560;17.852;2022-08-19T10:19:18;12.50;;;7.10;;
21727;SDS011;11026;50.560;17.852;2022-08-19T10:21:52;11.40;;;6.20;;
21727;SDS011;11026;50.560;17.852;2022-08-19T10:24:26;11.50;;;6.28;;
21727;SDS011;11026;50.560;17.852;2022-08-19T10:27:02;12.55;;;6.65;;
21727;SDS011;11026;50.560;17.852;2022-08-19T10:29:41;12.98;;;6.20;;
21727;SDS011;11026;50.560;17.852;2022-08-19T10:32:13;15.07;;;6.88;;
21727;SDS011;11026;50.560;17.852;2022-08-19T10:34:42;14.50;;;5.95;;
21727;SDS011;11026;50.560;17.852;2022-08-19T10:37:18;18.13;;;7.32;;
21727;SDS011;11026;50.560;17.852;2022-08-19T10:42:44;15.02;;;7.00;;
21727;SDS011;11026;50.560;17.852;2022-08-19T10:45:12;16.33;;;6.95;;
21727;SDS011;11026;50.560;17.852;2022-08-19T10:47:52;8.98;;;6.10;;
21727;SDS011;11026;50.560;17.852;2022-08-19T10:50:22;13.50;;;6.78;;
21727;SDS011;11026;50.560;17.852;2022-08-19T10:53:13;14.77;;;6.32;;
21727;SDS011;11026;50.560;17.852;2022-08-19T10:58:31;13.40;;;6.30;;
21727;SDS011;11026;50.560;17.852;2022-08-19T11:01:01;14.25;;;6.38;;
21727;SDS011;11026;50.560;17.852;2022-08-19T11:03:29;10.85;;;6.18;;
21727;SDS011;11026;50.560;17.852;2022-08-19T11:06:07;16.75;;;6.72;;
21727;SDS011;11026;50.560;17.852;2022-08-19T11:08:35;15.95;;;7.47;;
21727;SDS011;11026;50.560;17.852;2022-08-19T11:11:07;13.15;;;6.93;;
21727;SDS011;11026;50.560;17.852;2022-08-19T11:13:39;12.45;;;6.13;;
21727;SDS011;11026;50.560;17.852;2022-08-19T11:16:20;12.45;;;6.40;;
21727;SDS011;11026;50.560;17.852;2022-08-19T11:18:52;16.33;;;6.15;;
21727;SDS011;11026;50.560;17.852;2022-08-19T11:21:23;9.80;;;6.30;;
21727;SDS011;11026;50.560;17.852;2022-08-19T11:23:59;13.63;;;6.30;;
21727;SDS011;11026;50.560;17.852;2022-08-19T11:26:28;11.77;;;5.23;;
21727;SDS011;11026;50.560;17.852;2022-08-19T11:28:57;11.63;;;6.40;;
21727;SDS011;11026;50.560;17.852;2022-08-19T11:34:07;14.60;;;5.97;;
21727;SDS011;11026;50.560;17.852;2022-08-19T11:36:41;14.45;;;5.85;;
21727;SDS011;11026;50.560;17.852;2022-08-19T11:39:13;28.73;;;6.85;;
21727;SDS011;11026;50.560;17.852;2022-08-19T11:41:50;15.35;;;5.88;;
21727;SDS011;11026;50.560;17.852;2022-08-19T11:44:18;10.52;;;6.00;;
21727;SDS011;11026;50.560;17.852;2022-08-19T11:49:38;11.73;;;6.10;;
21727;SDS011;11026;50.560;17.852;2022-08-19T11:54:57;12.55;;;6.43;;
21727;SDS011;11026;50.560;17.852;2022-08-19T11:57:28;14.07;;;6.05;;
21727;SDS011;11026;50.560;17.852;2022-08-19T12:02:34;8.10;;;6.53;;
21727;SDS011;11026;50.560;17.852;2022-08-19T12:05:16;9.75;;;7.05;;
21727;SDS011;11026;50.560;17.852;2022-08-19T12:07:52;11.10;;;6.33;;
21727;SDS011;11026;50.560;17.852;2022-08-19T12:13:26;15.00;;;6.93;;
21727;SDS011;11026;50.560;17.852;2022-08-19T12:16:06;10.50;;;6.15;;
21727;SDS011;11026;50.560;17.852;2022-08-19T12:18:58;9.98;;;6.22;;
21727;SDS011;11026;50.560;17.852;2022-08-19T12:21:33;10.73;;;6.28;;
21727;SDS011;11026;50.560;17.852;2022-08-19T12:27:00;10.52;;;7.28;;
21727;SDS011;11026;50.560;17.852;2022-08-19T12:29:39;11.35;;;5.65;;
21727;SDS011;11026;50.560;17.852;2022-08-19T12:32:08;15.73;;;6.43;;
21727;SDS011;11026;50.560;17.852;2022-08-19T12:34:53;11.98;;;6.47;;
21727;SDS011;11026;50.560;17.852;2022-08-19T12:40:16;9.35;;;6.47;;
21727;SDS011;11026;50.560;17.852;2022-08-19T12:45:49;14.40;;;7.15;;
21727;SDS011;11026;50.560;17.852;2022-08-19T12:54:24;19.25;;;7.53;;
21727;SDS011;11026;50.560;17.852;2022-08-19T13:00:11;12.13;;;7.47;;
21727;SDS011;11026;50.560;17.852;2022-08-19T13:05:31;11.88;;;7.60;;
21727;SDS011;11026;50.560;17.852;2022-08-19T13:08:08;12.70;;;7.32;;
21727;SDS011;11026;50.560;17.852;2022-08-19T13:13:26;11.15;;;6.95;;
21727;SDS011;11026;50.560;17.852;2022-08-19T13:16:04;12.73;;;7.65;;
21727;SDS011;11026;50.560;17.852;2022-08-19T13:18:45;9.93;;;7.50;;
21727;SDS011;11026;50.560;17.852;2022-08-19T13:21:15;12.73;;;7.57;;
21727;SDS011;11026;50.560;17.852;2022-08-19T13:23:52;13.50;;;7.63;;
21727;SDS011;11026;50.560;17.852;2022-08-19T13:28:55;9.68;;;7.25;;
21727;SDS011;11026;50.560;17.852;2022-08-19T13:31:42;10.23;;;7.63;;
21727;SDS011;11026;50.560;17.852;2022-08-19T13:34:36;12.65;;;7.90;;
21727;SDS011;11026;50.560;17.852;2022-08-19T13:37:03;10.35;;;7.80;;
21727;SDS011;11026;50.560;17.852;2022-08-19T13:42:03;9.35;;;7.50;;
21727;SDS011;11026;50.560;17.852;2022-08-19T13:47:24;9.68;;;7.90;;
21727;SDS011;11026;50.560;17.852;2022-08-19T13:52:25;12.73;;;7.60;;
21727;SDS011;11026;50.560;17.852;2022-08-19T13:54:52;12.95;;;7.35;;
21727;SDS011;11026;50.560;17.852;2022-08-19T13:57:21;13.60;;;7.65;;
21727;SDS011;11026;50.560;17.852;2022-08-19T13:59:57;12.23;;;7.82;;
21727;SDS011;11026;50.560;17.852;2022-08-19T14:02:24;16.42;;;7.50;;
21727;SDS011;11026;50.560;17.852;2022-08-19T14:04:53;9.65;;;7.28;;
21727;SDS011;11026;50.560;17.852;2022-08-19T14:07:22;12.55;;;7.53;;
21727;SDS011;11026;50.560;17.852;2022-08-19T14:09:50;13.38;;;7.93;;
21727;SDS011;11026;50.560;17.852;2022-08-19T14:12:22;13.60;;;7.78;;
21727;SDS011;11026;50.560;17.852;2022-08-19T14:14:53;12.02;;;7.22;;
21727;SDS011;11026;50.560;17.852;2022-08-19T14:17:26;14.05;;;7.30;;
21727;SDS011;11026;50.560;17.852;2022-08-19T14:22:37;12.25;;;8.05;;
21727;SDS011;11026;50.560;17.852;2022-08-19T14:25:11;14.20;;;7.38;;
21727;SDS011;11026;50.560;17.852;2022-08-19T14:27:42;14.20;;;7.28;;
21727;SDS011;11026;50.560;17.852;2022-08-19T14:30:10;13.20;;;7.35;;
21727;SDS011;11026;50.560;17.852;2022-08-19T14:32:45;11.52;;;7.40;;
21727;SDS011;11026;50.560;17.852;2022-08-19T14:35:14;11.45;;;7.82;;
21727;SDS011;11026;50.560;17.852;2022-08-19T14:37:51;13.32;;;7.53;;
21727;SDS011;11026;50.560;17.852;2022-08-19T14:40:23;10.82;;;8.23;;
21727;SDS011;11026;50.560;17.852;2022-08-19T14:42:56;15.23;;;9.15;;
21727;SDS011;11026;50.560;17.852;2022-08-19T14:45:31;15.43;;;7.68;;
21727;SDS011;11026;50.560;17.852;2022-08-19T14:50:34;12.88;;;7.55;;
21727;SDS011;11026;50.560;17.852;2022-08-19T14:53:09;12.63;;;7.18;;
21727;SDS011;11026;50.560;17.852;2022-08-19T14:55:40;15.18;;;7.68;;
21727;SDS011;11026;50.560;17.852;2022-08-19T14:58:16;12.45;;;7.80;;
21727;SDS011;11026;50.560;17.852;2022-08-19T15:04:19;14.35;;;7.43;;
21727;SDS011;11026;50.560;17.852;2022-08-19T15:10:16;11.75;;;7.20;;
21727;SDS011;11026;50.560;17.852;2022-08-19T15:12:45;13.80;;;7.40;;
21727;SDS011;11026;50.560;17.852;2022-08-19T15:15:18;12.93;;;7.90;;
21727;SDS011;11026;50.560;17.852;2022-08-19T15:17:53;12.07;;;7.82;;
21727;SDS011;11026;50.560;17.852;2022-08-19T15:20:27;13.90;;;8.60;;
21727;SDS011;11026;50.560;17.852;2022-08-19T15:28:12;16.00;;;7.28;;
21727;SDS011;11026;50.560;17.852;2022-08-19T15:38:24;11.70;;;8.40;;
21727;SDS011;11026;50.560;17.852;2022-08-19T15:40:56;11.82;;;8.60;;
21727;SDS011;11026;50.560;17.852;2022-08-19T15:57:01;16.63;;;12.20;;
21727;SDS011;11026;50.560;17.852;2022-08-19T15:59:49;18.33;;;13.82;;
21727;SDS011;11026;50.560;17.852;2022-08-19T16:05:34;24.92;;;20.17;;
21727;SDS011;11026;50.560;17.852;2022-08-19T16:08:36;23.25;;;17.73;;
21727;SDS011;11026;50.560;17.852;2022-08-19T16:11:17;23.15;;;17.60;;
21727;SDS011;11026;50.560;17.852;2022-08-19T16:13:55;19.95;;;16.60;;
21727;SDS011;11026;50.560;17.852;2022-08-19T16:16:29;21.67;;;17.65;;
21727;SDS011;11026;50.560;17.852;2022-08-19T16:21:44;21.17;;;16.02;;
21727;SDS011;11026;50.560;17.852;2022-08-19T16:24:14;24.13;;;15.43;;
21727;SDS011;11026;50.560;17.852;2022-08-19T16:26:45;18.27;;;15.00;;
21727;SDS011;11026;50.560;17.852;2022-08-19T16:29:15;20.15;;;14.98;;
21727;SDS011;11026;50.560;17.852;2022-08-19T16:32:05;21.42;;;14.68;;
21727;SDS011;11026;50.560;17.852;2022-08-19T16:34:40;18.58;;;14.90;;
21727;SDS011;11026;50.560;17.852;2022-08-19T16:37:08;18.73;;;15.55;;
21727;SDS011;11026;50.560;17.852;2022-08-19T16:39:39;19.02;;;16.30;;
21727;SDS011;11026;50.560;17.852;2022-08-19T16:42:10;17.23;;;15.05;;
21727;SDS011;11026;50.560;17.852;2022-08-19T16:44:43;18.02;;;13.93;;
21727;SDS011;11026;50.560;17.852;2022-08-19T16:47:20;19.00;;;13.57;;
21727;SDS011;11026;50.560;17.852;2022-08-19T16:52:21;17.95;;;14.32;;
21727;SDS011;11026;50.560;17.852;2022-08-19T16:59:57;15.63;;;13.52;;
21727;SDS011;11026;50.560;17.852;2022-08-19T17:02:30;16.25;;;13.77;;
21727;SDS011;11026;50.560;17.852;2022-08-19T17:04:59;20.00;;;15.30;;
21727;SDS011;11026;50.560;17.852;2022-08-19T17:07:26;19.52;;;15.48;;
21727;SDS011;11026;50.560;17.852;2022-08-19T17:10:13;22.40;;;14.95;;
21727;SDS011;11026;50.560;17.852;2022-08-19T17:12:49;18.10;;;13.90;;
21727;SDS011;11026;50.560;17.852;2022-08-19T17:18:00;18.58;;;14.15;;
21727;SDS011;11026;50.560;17.852;2022-08-19T17:20:33;19.42;;;14.57;;
21727;SDS011;11026;50.560;17.852;2022-08-19T17:23:01;19.17;;;15.50;;
21727;SDS011;11026;50.560;17.852;2022-08-19T17:25:30;20.73;;;15.38;;
21727;SDS011;11026;50.560;17.852;2022-08-19T17:28:10;20.30;;;14.45;;
21727;SDS011;11026;50.560;17.852;2022-08-19T17:30:45;22.08;;;15.27;;
21727;SDS011;11026;50.560;17.852;2022-08-19T17:33:13;19.02;;;15.13;;
21727;SDS011;11026;50.560;17.852;2022-08-19T17:35:43;20.25;;;15.63;;
21727;SDS011;11026;50.560;17.852;2022-08-19T17:38:16;19.23;;;15.18;;
21727;SDS011;11026;50.560;17.852;2022-08-19T17:40:46;20.52;;;17.42;;
21727;SDS011;11026;50.560;17.852;2022-08-19T17:43:15;17.98;;;16.00;;
21727;SDS011;11026;50.560;17.852;2022-08-19T17:46:04;18.55;;;15.48;;
21727;SDS011;11026;50.560;17.852;2022-08-19T17:48:33;21.52;;;17.05;;
21727;SDS011;11026;50.560;17.852;2022-08-19T17:53:49;20.42;;;17.02;;
21727;SDS011;11026;50.560;17.852;2022-08-19T17:56:17;23.33;;;17.70;;
21727;SDS011;11026;50.560;17.852;2022-08-19T18:01:56;24.08;;;15.98;;
21727;SDS011;11026;50.560;17.852;2022-08-19T18:04:26;26.10;;;17.00;;
21727;SDS011;11026;50.560;17.852;2022-08-19T18:07:05;23.10;;;12.60;;
21727;SDS011;11026;50.560;17.852;2022-08-19T18:25:24;19.98;;;14.07;;
21727;SDS011;11026;50.560;17.852;2022-08-19T18:28:01;18.65;;;12.73;;
21727;SDS011;11026;50.560;17.852;2022-08-19T18:30:29;18.60;;;11.07;;
21727;SDS011;11026;50.560;17.852;2022-08-19T18:38:15;13.30;;;9.18;;
21727;SDS011;11026;50.560;17.852;2022-08-19T18:41:05;12.75;;;9.88;;
21727;SDS011;11026;50.560;17.852;2022-08-19T18:43:52;16.70;;;9.95;;
21727;SDS011;11026;50.560;17.852;2022-08-19T18:46:39;15.52;;;9.55;;
21727;SDS011;11026;50.560;17.852;2022-08-19T18:49:26;12.38;;;9.55;;
21727;SDS011;11026;50.560;17.852;2022-08-19T18:51:57;17.38;;;9.68;;
21727;SDS011;11026;50.560;17.852;2022-08-19T18:54:28;9.88;;;7.95;;
21727;SDS011;11026;50.560;17.852;2022-08-19T18:56:55;10.68;;;7.82;;
21727;SDS011;11026;50.560;17.852;2022-08-19T18:59:35;11.77;;;7.82;;
21727;SDS011;11026;50.560;17.852;2022-08-19T19:02:05;11.55;;;7.65;;
21727;SDS011;11026;50.560;17.852;2022-08-19T19:04:35;13.05;;;7.72;;
21727;SDS011;11026;50.560;17.852;2022-08-19T19:07:09;12.07;;;8.00;;
21727;SDS011;11026;50.560;17.852;2022-08-19T19:09:38;12.57;;;8.45;;
21727;SDS011;11026;50.560;17.852;2022-08-19T19:12:09;11.77;;;8.70;;
21727;SDS011;11026;50.560;17.852;2022-08-19T19:14:38;11.85;;;9.27;;
21727;SDS011;11026;50.560;17.852;2022-08-19T19:17:19;18.55;;;10.98;;
21727;SDS011;11026;50.560;17.852;2022-08-19T19:19:59;15.95;;;11.85;;
21727;SDS011;11026;50.560;17.852;2022-08-19T19:24:54;15.73;;;13.38;;
21727;SDS011;11026;50.560;17.852;2022-08-19T19:27:22;18.75;;;14.07;;
21727;SDS011;11026;50.560;17.852;2022-08-19T19:29:52;21.73;;;14.50;;
21727;SDS011;11026;50.560;17.852;2022-08-19T19:32:22;22.02;;;15.40;;
21727;SDS011;11026;50.560;17.852;2022-08-19T19:34:51;21.67;;;14.43;;
21727;SDS011;11026;50.560;17.852;2022-08-19T19:40:20;18.15;;;14.63;;
21727;SDS011;11026;50.560;17.852;2022-08-19T19:42:55;19.70;;;14.52;;
21727;SDS011;11026;50.560;17.852;2022-08-19T19:45:23;22.30;;;16.02;;
21727;SDS011;11026;50.560;17.852;2022-08-19T19:47:51;20.52;;;15.23;;
21727;SDS011;11026;50.560;17.852;2022-08-19T19:52:57;21.40;;;15.02;;
21727;SDS011;11026;50.560;17.852;2022-08-19T19:55:34;20.98;;;15.10;;
21727;SDS011;11026;50.560;17.852;2022-08-19T19:58:10;23.45;;;15.82;;
21727;SDS011;11026;50.560;17.852;2022-08-19T20:00:45;21.10;;;15.95;;
21727;SDS011;11026;50.560;17.852;2022-08-19T20:03:17;24.30;;;16.75;;